Time;durP1;ratioP1;P1;durP2;ratioP2;P2;SDS_P1;SDS_P2;PMS_P1;PMS_P2;Temp;Humidity;BMP_temperature;BMP_pressure;BME280_temperature;BME280_humidity;BME280_pressure;Samples;Min_cycle;Max_cycle;Signal;HPM_P1;HPM_P2
2022/05/13 00:01:03;;;;;;;6.30;2.13;;;;;;;;;;5064800;28;20048;-73
2022/05/13 00:03:29;;;;;;;7.60;2.08;;;;;;;;;;5066131;28;20570;-73
2022/05/13 00:05:56;;;;;;;7.88;2.03;;;;;;;;;;5032127;28;20040;-73
2022/05/13 00:08:22;;;;;;;9.88;2.28;;;;;;;;;;5048709;28;20041;-72
2022/05/13 00:10:48;;;;;;;6.13;2.05;;;;;;;;;;5064685;28;20105;-72
2022/05/13 00:13:14;;;;;;;9.50;2.40;;;;;;;;;;5066416;28;20041;-72
2022/05/13 00:15:42;;;;;;;7.72;2.42;;;;;;;;;;5057032;28;20059;-72
2022/05/13 00:18:09;;;;;;;10.40;3.10;;;;;;;;;;5064306;28;20052;-72
2022/05/13 00:20:35;;;;;;;8.40;2.58;;;;;;;;;;5049657;28;20044;-73
2022/05/13 00:23:01;;;;;;;9.13;2.58;;;;;;;;;;5065010;28;20041;-72
2022/05/13 00:25:30;;;;;;;10.73;2.58;;;;;;;;;;5064224;28;20048;-73
2022/05/13 00:27:56;;;;;;;7.25;2.95;;;;;;;;;;5067316;28;20052;-73
2022/05/13 00:30:23;;;;;;;8.40;2.97;;;;;;;;;;5065371;28;20070;-72
2022/05/13 00:32:49;;;;;;;8.18;2.60;;;;;;;;;;5049817;28;20049;-73
2022/05/13 00:35:15;;;;;;;7.25;2.88;;;;;;;;;;5065401;28;20044;-73
2022/05/13 00:37:41;;;;;;;7.45;2.80;;;;;;;;;;5061468;28;20043;-73
2022/05/13 00:40:08;;;;;;;11.00;3.17;;;;;;;;;;5063498;28;20108;-73
2022/05/13 00:42:34;;;;;;;7.70;2.90;;;;;;;;;;5049594;28;20052;-73
2022/05/13 00:45:00;;;;;;;8.23;3.05;;;;;;;;;;5066886;28;20048;-73
2022/05/13 00:47:26;;;;;;;8.20;3.05;;;;;;;;;;5067724;28;20406;-72
2022/05/13 00:49:54;;;;;;;7.25;2.67;;;;;;;;;;5065930;28;20041;-72
2022/05/13 00:52:20;;;;;;;8.13;3.08;;;;;;;;;;5066409;28;20084;-73
2022/05/13 00:54:47;;;;;;;9.02;3.55;;;;;;;;;;5067403;28;20522;-73
2022/05/13 00:57:13;;;;;;;15.10;3.30;;;;;;;;;;5067665;28;20041;-73
2022/05/13 00:59:40;;;;;;;7.32;2.97;;;;;;;;;;5068442;28;20866;-73
2022/05/13 01:02:06;;;;;;;8.95;3.20;;;;;;;;;;5051606;28;20060;-73
2022/05/13 01:04:34;;;;;;;10.15;3.15;;;;;;;;;;5053240;28;20075;-73
2022/05/13 01:07:04;;;;;;;7.72;2.92;;;;;;;;;;5051479;28;20041;-73
2022/05/13 01:09:32;;;;;;;9.77;3.40;;;;;;;;;;5067785;28;20041;-73
2022/05/13 01:11:59;;;;;;;10.63;3.30;;;;;;;;;;5069185;28;20335;-73
2022/05/13 01:14:28;;;;;;;9.88;3.03;;;;;;;;;;5070166;28;20060;-73
2022/05/13 01:19:39;;;;;;;8.88;3.10;;;;;;;;;;5069523;28;20037;-72
2022/05/13 01:22:15;;;;;;;8.40;3.33;;;;;;;;;;5069941;28;20080;-72
2022/05/13 01:24:41;;;;;;;10.70;3.38;;;;;;;;;;5066596;28;20045;-73
2022/05/13 01:27:07;;;;;;;8.70;2.80;;;;;;;;;;5067924;28;20045;-72
2022/05/13 01:29:33;;;;;;;8.90;3.25;;;;;;;;;;5069935;28;20041;-73
2022/05/13 01:31:59;;;;;;;8.32;2.92;;;;;;;;;;5065707;28;20533;-72
2022/05/13 01:34:25;;;;;;;8.10;3.03;;;;;;;;;;5055230;28;20049;-72
2022/05/13 01:36:51;;;;;;;7.38;2.80;;;;;;;;;;5072980;28;20091;-73
2022/05/13 01:39:17;;;;;;;8.65;2.95;;;;;;;;;;5071953;28;20036;-72
2022/05/13 01:41:43;;;;;;;7.13;2.70;;;;;;;;;;5074098;28;20406;-72
2022/05/13 01:44:10;;;;;;;9.52;3.00;;;;;;;;;;5072923;28;20119;-71
2022/05/13 01:46:36;;;;;;;7.10;2.30;;;;;;;;;;5073608;28;20041;-72
2022/05/13 01:49:02;;;;;;;7.93;2.50;;;;;;;;;;5072363;28;20041;-73
2022/05/13 01:51:28;;;;;;;8.80;3.08;;;;;;;;;;5072279;28;20033;-73
2022/05/13 01:53:54;;;;;;;10.25;2.47;;;;;;;;;;5072864;28;20052;-72
2022/05/13 01:56:20;;;;;;;11.23;2.90;;;;;;;;;;5070197;28;20422;-73
2022/05/13 01:58:46;;;;;;;10.55;2.50;;;;;;;;;;5071516;28;20045;-72
2022/05/13 02:01:12;;;;;;;8.45;2.33;;;;;;;;;;5073986;28;20570;-72
2022/05/13 02:03:44;;;;;;;7.97;2.45;;;;;;;;;;5075349;28;20029;-72
2022/05/13 02:06:10;;;;;;;12.25;2.80;;;;;;;;;;5073671;28;20048;-72
2022/05/13 02:08:37;;;;;;;7.05;2.33;;;;;;;;;;5074336;28;20020;-72
2022/05/13 02:11:03;;;;;;;8.02;2.17;;;;;;;;;;5070159;28;20037;-72
2022/05/13 02:13:29;;;;;;;8.50;2.45;;;;;;;;;;5062002;28;20498;-72
2022/05/13 02:15:55;;;;;;;8.80;2.70;;;;;;;;;;5072248;28;20132;-73
2022/05/13 02:18:21;;;;;;;9.40;2.20;;;;;;;;;;5051420;28;20041;-72
2022/05/13 02:20:48;;;;;;;10.57;2.55;;;;;;;;;;5074745;28;20041;-72
2022/05/13 02:23:14;;;;;;;6.82;2.30;;;;;;;;;;5074212;28;20043;-72
2022/05/13 02:25:42;;;;;;;7.05;2.20;;;;;;;;;;5074734;28;20052;-73
2022/05/13 02:28:08;;;;;;;10.00;2.78;;;;;;;;;;5074271;28;20475;-73
2022/05/13 02:30:34;;;;;;;8.70;2.15;;;;;;;;;;5075065;28;20076;-72
2022/05/13 02:33:01;;;;;;;9.55;2.15;;;;;;;;;;5052929;28;20038;-72
2022/05/13 02:35:27;;;;;;;10.30;2.60;;;;;;;;;;5062717;28;20048;-72
2022/05/13 02:37:54;;;;;;;9.05;2.20;;;;;;;;;;5074962;28;20104;-72
2022/05/13 02:40:21;;;;;;;8.65;2.50;;;;;;;;;;5072992;28;20070;-71
2022/05/13 02:42:47;;;;;;;9.93;2.60;;;;;;;;;;5073141;28;20562;-72
2022/05/13 02:45:13;;;;;;;11.60;2.80;;;;;;;;;;5074099;28;20037;-73
2022/05/13 02:47:40;;;;;;;9.55;2.50;;;;;;;;;;5074316;28;20044;-73
2022/05/13 02:50:21;;;;;;;12.65;2.50;;;;;;;;;;5073048;28;20041;-73
2022/05/13 02:52:47;;;;;;;7.47;2.38;;;;;;;;;;5075838;28;20047;-71
2022/05/13 02:55:14;;;;;;;8.82;2.42;;;;;;;;;;5073365;28;20041;-72
2022/05/13 02:57:40;;;;;;;8.27;2.38;;;;;;;;;;5075228;28;20063;-72
2022/05/13 03:00:07;;;;;;;8.90;2.58;;;;;;;;;;5074695;28;20076;-71
2022/05/13 03:02:36;;;;;;;10.30;2.60;;;;;;;;;;5057208;28;20564;-72
2022/05/13 03:05:02;;;;;;;10.00;2.53;;;;;;;;;;5074017;28;20041;-73
2022/05/13 03:07:28;;;;;;;10.77;2.72;;;;;;;;;;5073631;28;20047;-73
2022/05/13 03:09:57;;;;;;;11.38;2.47;;;;;;;;;;5072785;28;20044;-73
2022/05/13 03:12:24;;;;;;;10.85;2.78;;;;;;;;;;5072032;28;20128;-72
2022/05/13 03:14:50;;;;;;;9.77;2.35;;;;;;;;;;5072546;28;20044;-72
2022/05/13 03:17:16;;;;;;;10.25;2.80;;;;;;;;;;5073497;28;20047;-72
2022/05/13 03:19:42;;;;;;;9.88;2.60;;;;;;;;;;5071251;28;20044;-72
2022/05/13 03:22:08;;;;;;;9.18;2.42;;;;;;;;;;5071161;28;20044;-72
2022/05/13 03:24:34;;;;;;;9.43;2.72;;;;;;;;;;5054677;28;20048;-72
2022/05/13 03:27:00;;;;;;;11.18;2.90;;;;;;;;;;5072344;28;20064;-72
2022/05/13 03:29:27;;;;;;;9.13;2.85;;;;;;;;;;5073202;28;20045;-73
2022/05/13 03:31:54;;;;;;;12.15;3.03;;;;;;;;;;5071269;28;20040;-71
2022/05/13 03:34:21;;;;;;;8.90;2.63;;;;;;;;;;5071746;28;20041;-71
2022/05/13 03:36:49;;;;;;;11.52;2.70;;;;;;;;;;5055602;28;20063;-72
2022/05/13 03:39:15;;;;;;;10.15;2.75;;;;;;;;;;5054626;28;20044;-72
2022/05/13 03:41:41;;;;;;;10.07;3.03;;;;;;;;;;5053142;28;20043;-71
2022/05/13 03:44:08;;;;;;;13.95;3.10;;;;;;;;;;5074203;28;20025;-72
2022/05/13 03:46:34;;;;;;;10.60;2.80;;;;;;;;;;5055901;28;20101;-72
2022/05/13 03:49:01;;;;;;;8.43;2.80;;;;;;;;;;5037492;28;20045;-73
2022/05/13 03:51:28;;;;;;;9.35;2.70;;;;;;;;;;5064569;28;20062;-73
2022/05/13 03:53:54;;;;;;;9.15;3.00;;;;;;;;;;5053707;28;20045;-72
2022/05/13 03:56:20;;;;;;;11.35;2.97;;;;;;;;;;5073015;28;20037;-72
2022/05/13 03:58:46;;;;;;;9.88;2.85;;;;;;;;;;5071293;28;20048;-72
2022/05/13 04:01:12;;;;;;;11.68;3.10;;;;;;;;;;5071173;28;20041;-72
2022/05/13 04:03:38;;;;;;;9.77;2.72;;;;;;;;;;5067490;28;20047;-71
2022/05/13 04:08:58;;;;;;;12.40;2.75;;;;;;;;;;5068979;28;20037;-72
2022/05/13 04:11:28;;;;;;;10.25;2.83;;;;;;;;;;5072306;28;20045;-72
2022/05/13 04:16:39;;;;;;;12.73;3.47;;;;;;;;;;5073066;28;20292;-72
2022/05/13 04:19:05;;;;;;;13.55;3.15;;;;;;;;;;5052108;28;20060;-72
2022/05/13 04:21:32;;;;;;;11.13;2.70;;;;;;;;;;5069752;28;20095;-72
2022/05/13 04:24:02;;;;;;;8.15;2.75;;;;;;;;;;5071035;28;20076;-73
2022/05/13 04:26:29;;;;;;;11.50;2.72;;;;;;;;;;5073380;28;20052;-72
2022/05/13 04:28:56;;;;;;;14.10;3.25;;;;;;;;;;5073497;28;20048;-72
2022/05/13 04:31:23;;;;;;;11.85;2.75;;;;;;;;;;5058349;28;20049;-73
2022/05/13 04:33:50;;;;;;;11.55;3.40;;;;;;;;;;5052879;28;20025;-71
2022/05/13 04:36:16;;;;;;;16.08;3.15;;;;;;;;;;5053389;28;20049;-72
2022/05/13 04:38:44;;;;;;;15.10;3.58;;;;;;;;;;5073285;28;20044;-73
2022/05/13 04:43:56;;;;;;;13.98;3.20;;;;;;;;;;5074731;28;20040;-73
2022/05/13 04:46:22;;;;;;;8.73;2.78;;;;;;;;;;5039893;28;20050;-73
2022/05/13 04:48:48;;;;;;;14.55;3.17;;;;;;;;;;5066125;28;20041;-72
2022/05/13 04:51:17;;;;;;;14.05;3.20;;;;;;;;;;5073497;28;20045;-73
2022/05/13 04:53:44;;;;;;;10.98;2.85;;;;;;;;;;5073897;28;20073;-73
2022/05/13 04:56:10;;;;;;;12.57;3.00;;;;;;;;;;5056563;28;20049;-72
2022/05/13 04:58:38;;;;;;;14.60;3.42;;;;;;;;;;5075715;28;20063;-72
2022/05/13 05:01:05;;;;;;;11.88;3.28;;;;;;;;;;5070264;28;20091;-71
2022/05/13 05:03:31;;;;;;;12.77;3.13;;;;;;;;;;5072668;28;20021;-72
2022/05/13 05:05:58;;;;;;;11.98;3.42;;;;;;;;;;5068161;28;20055;-72
2022/05/13 05:08:24;;;;;;;16.83;3.20;;;;;;;;;;5069959;28;20045;-73
2022/05/13 05:10:50;;;;;;;11.88;3.35;;;;;;;;;;5070456;28;20059;-71
2022/05/13 05:13:20;;;;;;;13.43;3.22;;;;;;;;;;5054857;28;20025;-73
2022/05/13 05:15:47;;;;;;;13.00;3.78;;;;;;;;;;5074699;28;20065;-73
2022/05/13 05:18:13;;;;;;;18.38;3.80;;;;;;;;;;5072783;28;20061;-73
2022/05/13 05:20:39;;;;;;;13.05;2.83;;;;;;;;;;5051058;28;20025;-72
2022/05/13 05:23:05;;;;;;;14.75;3.25;;;;;;;;;;5073911;28;20049;-72
2022/05/13 05:25:31;;;;;;;14.88;3.50;;;;;;;;;;5072220;28;20083;-73
2022/05/13 05:27:57;;;;;;;15.35;3.50;;;;;;;;;;5061094;28;20097;-72
2022/05/13 05:30:24;;;;;;;12.02;3.45;;;;;;;;;;5062217;28;20041;-72
2022/05/13 05:32:50;;;;;;;13.40;3.80;;;;;;;;;;5072043;28;20045;-73
2022/05/13 05:35:17;;;;;;;13.38;3.03;;;;;;;;;;5054257;28;20070;-73
2022/05/13 05:37:43;;;;;;;16.67;3.72;;;;;;;;;;5071193;28;20099;-72
2022/05/13 05:40:09;;;;;;;15.77;3.92;;;;;;;;;;5062164;28;20052;-72
2022/05/13 05:42:36;;;;;;;18.30;4.63;;;;;;;;;;5068564;28;20032;-72
2022/05/13 05:45:02;;;;;;;14.30;3.72;;;;;;;;;;5052553;28;20471;-73
2022/05/13 05:47:28;;;;;;;13.23;3.47;;;;;;;;;;5072494;28;20021;-73
2022/05/13 05:49:54;;;;;;;16.60;3.97;;;;;;;;;;5040407;28;20068;-73
2022/05/13 05:52:20;;;;;;;17.25;3.65;;;;;;;;;;5065895;28;20037;-71
2022/05/13 05:57:31;;;;;;;14.32;3.50;;;;;;;;;;5074472;28;20112;-72
2022/05/13 06:00:00;;;;;;;18.27;4.07;;;;;;;;;;5061032;28;20037;-73
2022/05/13 06:02:27;;;;;;;16.73;3.97;;;;;;;;;;5054706;28;20200;-72
2022/05/13 06:04:53;;;;;;;13.82;3.85;;;;;;;;;;5059264;28;20045;-72
2022/05/13 06:07:19;;;;;;;17.55;3.33;;;;;;;;;;5071442;28;20084;-72
2022/05/13 06:09:45;;;;;;;15.35;3.80;;;;;;;;;;5072900;28;20049;-72
2022/05/13 06:12:13;;;;;;;14.27;3.78;;;;;;;;;;5071447;28;20075;-72
2022/05/13 06:14:39;;;;;;;13.70;4.00;;;;;;;;;;5071215;28;20037;-73
2022/05/13 06:17:05;;;;;;;13.88;3.65;;;;;;;;;;5072185;28;20033;-73
2022/05/13 06:19:31;;;;;;;12.38;3.42;;;;;;;;;;5070978;28;20033;-73
2022/05/13 06:21:57;;;;;;;12.45;3.78;;;;;;;;;;5072551;28;20051;-73
2022/05/13 06:24:23;;;;;;;14.45;3.85;;;;;;;;;;5073782;28;20041;-73
2022/05/13 06:26:50;;;;;;;12.18;3.63;;;;;;;;;;5075854;28;20044;-73
2022/05/13 06:29:16;;;;;;;13.15;3.15;;;;;;;;;;5061891;28;20042;-73
2022/05/13 06:31:43;;;;;;;12.88;3.55;;;;;;;;;;5064798;28;20044;-72
2022/05/13 06:34:09;;;;;;;15.77;3.95;;;;;;;;;;5074921;28;20101;-73
2022/05/13 06:36:35;;;;;;;14.45;3.67;;;;;;;;;;5068527;28;20068;-73
2022/05/13 06:39:02;;;;;;;12.20;3.65;;;;;;;;;;5074035;28;20049;-72
2022/05/13 06:41:28;;;;;;;14.13;3.50;;;;;;;;;;5070432;28;20053;-72
2022/05/13 06:43:54;;;;;;;14.75;3.78;;;;;;;;;;5058508;28;20053;-72
2022/05/13 06:46:20;;;;;;;15.35;3.75;;;;;;;;;;5053279;28;20044;-72
2022/05/13 06:48:47;;;;;;;16.25;3.85;;;;;;;;;;5073954;28;20148;-72
2022/05/13 06:51:13;;;;;;;13.65;4.25;;;;;;;;;;5057136;28;20053;-73
2022/05/13 06:53:39;;;;;;;14.35;3.63;;;;;;;;;;5070057;28;20052;-72
2022/05/13 06:56:05;;;;;;;14.20;3.78;;;;;;;;;;5074558;28;20073;-73
2022/05/13 06:58:31;;;;;;;16.40;3.80;;;;;;;;;;5075415;28;20168;-73
2022/05/13 07:00:57;;;;;;;17.48;3.88;;;;;;;;;;5056610;28;20049;-74
2022/05/13 07:03:23;;;;;;;16.02;3.70;;;;;;;;;;5068164;28;20526;-72
2022/05/13 07:05:49;;;;;;;12.05;3.40;;;;;;;;;;5036471;28;20073;-72
2022/05/13 07:08:15;;;;;;;13.38;3.58;;;;;;;;;;5056694;28;20098;-75
2022/05/13 07:10:42;;;;;;;11.35;3.40;;;;;;;;;;5041887;28;20049;-73
2022/05/13 07:13:09;;;;;;;15.90;3.88;;;;;;;;;;5058349;28;20050;-75
2022/05/13 07:15:35;;;;;;;12.00;3.60;;;;;;;;;;5067870;28;20033;-75
2022/05/13 07:18:01;;;;;;;10.07;3.15;;;;;;;;;;5057119;28;20048;-73
2022/05/13 07:20:28;;;;;;;11.95;3.00;;;;;;;;;;5065294;28;20053;-71
2022/05/13 07:22:55;;;;;;;13.77;2.95;;;;;;;;;;5071921;28;20051;-73
2022/05/13 07:25:21;;;;;;;13.98;3.15;;;;;;;;;;5071745;28;20093;-73
2022/05/13 07:27:47;;;;;;;12.05;2.85;;;;;;;;;;5052749;28;20079;-72
2022/05/13 07:30:13;;;;;;;9.45;2.38;;;;;;;;;;5035410;28;20037;-73
2022/05/13 07:32:39;;;;;;;9.13;2.40;;;;;;;;;;5050825;28;20407;-73
2022/05/13 07:35:06;;;;;;;10.88;2.40;;;;;;;;;;5052050;28;20040;-72
2022/05/13 07:37:32;;;;;;;8.73;2.10;;;;;;;;;;5067346;28;20048;-72
2022/05/13 07:42:43;;;;;;;11.38;2.20;;;;;;;;;;5066718;28;20052;-72
2022/05/13 07:45:10;;;;;;;10.80;2.15;;;;;;;;;;5063558;28;20041;-72
2022/05/13 07:47:38;;;;;;;10.73;2.17;;;;;;;;;;5039430;28;20037;-72
2022/05/13 07:50:05;;;;;;;12.90;1.70;;;;;;;;;;5061023;28;20045;-72
2022/05/13 07:52:31;;;;;;;8.43;1.70;;;;;;;;;;5061200;28;20071;-72
2022/05/13 07:54:57;;;;;;;9.00;2.08;;;;;;;;;;5056023;28;20041;-73
2022/05/13 07:57:23;;;;;;;9.65;1.95;;;;;;;;;;5059623;28;20041;-75
2022/05/13 08:02:34;;;;;;;8.63;1.83;;;;;;;;;;5060442;28;20139;-71
2022/05/13 08:05:00;;;;;;;8.38;1.90;;;;;;;;;;5058111;28;20041;-72
2022/05/13 08:07:26;;;;;;;11.13;2.10;;;;;;;;;;5060325;28;20057;-73
2022/05/13 08:09:52;;;;;;;9.75;1.90;;;;;;;;;;5058682;28;20045;-72
2022/05/13 08:12:18;;;;;;;8.55;1.75;;;;;;;;;;5061515;28;20041;-72
2022/05/13 08:14:44;;;;;;;9.20;1.90;;;;;;;;;;5046584;28;20048;-72
2022/05/13 08:17:10;;;;;;;7.38;1.92;;;;;;;;;;5046378;28;20090;-72
2022/05/13 08:19:36;;;;;;;10.63;1.73;;;;;;;;;;5047655;28;20048;-72
2022/05/13 08:22:02;;;;;;;6.65;1.58;;;;;;;;;;5045865;28;20052;-73
2022/05/13 08:24:28;;;;;;;8.50;1.35;;;;;;;;;;5063587;28;20051;-74
2022/05/13 08:26:54;;;;;;;7.65;1.50;;;;;;;;;;5064860;28;20123;-72
2022/05/13 08:29:20;;;;;;;8.27;1.70;;;;;;;;;;5063546;28;20068;-72
2022/05/13 08:31:47;;;;;;;8.93;1.75;;;;;;;;;;5061347;28;20095;-70
2022/05/13 08:34:14;;;;;;;7.20;1.52;;;;;;;;;;5060768;28;20100;-72
2022/05/13 08:36:40;;;;;;;7.38;1.50;;;;;;;;;;5063882;28;20040;-72
2022/05/13 08:39:08;;;;;;;7.35;1.40;;;;;;;;;;5064739;28;20103;-72
2022/05/13 08:41:54;;;;;;;8.57;1.42;;;;;;;;;;5062415;28;20057;-72
2022/05/13 08:44:20;;;;;;;7.00;1.30;;;;;;;;;;5058353;28;20045;-71
2022/05/13 08:46:52;;;;;;;5.43;1.55;;;;;;;;;;5041281;28;20091;-71
2022/05/13 08:49:31;;;;;;;11.45;1.80;;;;;;;;;;5060978;28;20063;-72
2022/05/13 08:54:57;;;;;;;6.53;1.27;;;;;;;;;;5042914;28;20495;-73
2022/05/13 08:57:26;;;;;;;9.98;1.58;;;;;;;;;;5048392;28;20045;-73
2022/05/13 08:59:55;;;;;;;5.63;1.17;;;;;;;;;;5063435;28;20518;-72
2022/05/13 09:02:37;;;;;;;7.95;1.40;;;;;;;;;;5044689;28;20037;-74
2022/05/13 09:05:03;;;;;;;5.85;1.30;;;;;;;;;;5061006;28;20514;-72
2022/05/13 09:07:30;;;;;;;7.18;1.55;;;;;;;;;;5061203;28;20037;-71
2022/05/13 09:09:58;;;;;;;9.82;1.88;;;;;;;;;;5060939;28;20077;-73
2022/05/13 09:12:31;;;;;;;6.90;1.13;;;;;;;;;;5061198;28;20048;-72
2022/05/13 09:15:02;;;;;;;8.68;1.63;;;;;;;;;;5061348;28;20067;-73
2022/05/13 09:17:28;;;;;;;;;;;;;;;;;;5059153;28;20442;-73
2022/05/13 09:20:01;;;;;;;5.63;1.20;;;;;;;;;;5059439;28;19984;-72
2022/05/13 09:22:42;;;;;;;8.05;1.60;;;;;;;;;;5057433;28;20051;-72
2022/05/13 09:25:12;;;;;;;8.25;1.52;;;;;;;;;;5057641;28;20041;-72
2022/05/13 09:27:43;;;;;;;7.95;1.48;;;;;;;;;;5058648;28;20046;-72
2022/05/13 09:30:09;;;;;;;6.30;1.42;;;;;;;;;;5058074;28;20056;-72
2022/05/13 09:32:36;;;;;;;7.43;1.40;;;;;;;;;;5058393;28;20049;-72
2022/05/13 09:35:05;;;;;;;7.00;1.50;;;;;;;;;;5058641;28;20067;-71
2022/05/13 09:37:45;;;;;;;6.30;1.40;;;;;;;;;;5057936;28;20049;-72
2022/05/13 09:40:12;;;;;;;6.90;1.50;;;;;;;;;;5056636;28;20098;-71
2022/05/13 09:42:38;;;;;;;7.25;1.30;;;;;;;;;;5059742;28;20777;-73
2022/05/13 09:45:13;;;;;;;8.07;1.60;;;;;;;;;;5061944;28;20080;-73
2022/05/13 09:47:39;;;;;;;6.80;1.35;;;;;;;;;;5060863;28;20041;-73
2022/05/13 09:50:17;;;;;;;4.78;1.30;;;;;;;;;;5060512;28;20056;-73
2022/05/13 09:52:43;;;;;;;4.72;1.00;;;;;;;;;;5060042;28;20041;-73
2022/05/13 09:55:22;;;;;;;8.00;1.30;;;;;;;;;;5058668;28;20055;-73
2022/05/13 09:57:50;;;;;;;7.25;1.20;;;;;;;;;;5065642;28;20102;-72
2022/05/13 10:00:19;;;;;;;5.97;1.17;;;;;;;;;;5064564;28;20045;-73
2022/05/13 10:02:47;;;;;;;4.57;1.20;;;;;;;;;;5062460;28;20108;-73
2022/05/13 10:05:22;;;;;;;7.35;1.15;;;;;;;;;;5063069;28;20040;-73
2022/05/13 10:07:51;;;;;;;5.15;1.25;;;;;;;;;;5044882;28;20073;-73
2022/05/13 10:15:53;;;;;;;6.22;1.15;;;;;;;;;;5064995;28;20064;-72
2022/05/13 10:18:27;;;;;;;6.97;1.33;;;;;;;;;;5063655;28;20057;-72
2022/05/13 10:20:59;;;;;;;9.23;1.40;;;;;;;;;;5042852;28;20053;-72
2022/05/13 10:23:31;;;;;;;6.45;1.45;;;;;;;;;;5060624;28;20068;-72
2022/05/13 10:25:57;;;;;;;;;;;;;;;;;;5062518;28;20049;-72
2022/05/13 10:28:45;;;;;;;8.98;1.50;;;;;;;;;;5063690;28;19979;-73
2022/05/13 10:31:11;;;;;;;7.22;1.20;;;;;;;;;;5063571;28;20041;-72
2022/05/13 10:33:38;;;;;;;6.15;1.27;;;;;;;;;;5046538;28;20056;-72
2022/05/13 10:36:04;;;;;;;5.72;1.23;;;;;;;;;;5044998;28;20045;-72
2022/05/13 10:38:33;;;;;;;6.90;1.27;;;;;;;;;;5056399;28;20098;-72
2022/05/13 10:41:07;;;;;;;9.30;1.55;;;;;;;;;;5062371;28;20059;-73
2022/05/13 10:43:38;;;;;;;5.53;1.23;;;;;;;;;;5061497;28;20084;-73
2022/05/13 10:46:04;;;;;;;;;;;;;;;;;;5062522;28;20049;-72
2022/05/13 10:48:30;;;;;;;6.13;1.30;;;;;;;;;;5062841;28;19920;-74
2022/05/13 10:51:26;;;;;;;7.00;1.30;;;;;;;;;;5061713;28;20102;-73
2022/05/13 10:54:07;;;;;;;10.02;1.65;;;;;;;;;;5032911;28;20060;-73
2022/05/13 10:56:33;;;;;;;;;;;;;;;;;;5059605;28;20400;-72
2022/05/13 10:58:59;;;;;;;7.60;1.40;;;;;;;;;;5044584;28;19921;-72
2022/05/13 11:01:25;;;;;;;6.13;1.35;;;;;;;;;;5051215;28;20041;-72
2022/05/13 11:04:01;;;;;;;10.23;1.30;;;;;;;;;;5040209;28;20053;-73
2022/05/13 11:06:46;;;;;;;6.18;1.40;;;;;;;;;;5041537;28;20079;-72
2022/05/13 11:09:19;;;;;;;6.80;1.60;;;;;;;;;;5043737;28;20046;-73
2022/05/13 11:11:46;;;;;;;11.25;1.80;;;;;;;;;;5057292;28;20053;-73
2022/05/13 11:14:21;;;;;;;8.38;1.30;;;;;;;;;;5039518;28;20048;-73
2022/05/13 11:16:53;;;;;;;8.57;1.75;;;;;;;;;;5058262;28;20175;-72
2022/05/13 11:19:25;;;;;;;7.90;1.60;;;;;;;;;;5063749;28;20132;-72
2022/05/13 11:21:56;;;;;;;8.85;1.80;;;;;;;;;;5062835;28;20052;-71
2022/05/13 11:27:45;;;;;;;8.43;1.42;;;;;;;;;;5047227;28;20127;-73
2022/05/13 11:30:15;;;;;;;9.88;1.50;;;;;;;;;;5061792;28;20045;-73
2022/05/13 11:32:53;;;;;;;5.35;1.30;;;;;;;;;;5062751;28;20056;-73
2022/05/13 11:35:32;;;;;;;10.82;2.10;;;;;;;;;;5062214;28;20154;-73
2022/05/13 11:38:00;;;;;;;9.43;1.92;;;;;;;;;;5061447;28;20048;-71
2022/05/13 11:40:30;;;;;;;8.65;1.50;;;;;;;;;;5063149;28;20037;-71
2022/05/13 11:43:20;;;;;;;5.25;1.38;;;;;;;;;;5062779;28;20045;-73
2022/05/13 11:45:49;;;;;;;7.70;1.65;;;;;;;;;;5044055;28;20474;-73
2022/05/13 11:48:29;;;;;;;7.00;1.40;;;;;;;;;;5045436;28;20053;-72
2022/05/13 11:51:06;;;;;;;5.95;1.20;;;;;;;;;;5048895;28;20041;-72
2022/05/13 11:53:43;;;;;;;9.38;1.70;;;;;;;;;;5061111;28;20056;-72
2022/05/13 11:56:30;;;;;;;7.00;1.50;;;;;;;;;;5060459;28;20048;-71
2022/05/13 11:59:01;;;;;;;10.30;1.50;;;;;;;;;;5059658;28;20407;-73
2022/05/13 12:01:36;;;;;;;6.47;1.50;;;;;;;;;;5059580;28;20051;-73
2022/05/13 12:04:14;;;;;;;5.53;1.50;;;;;;;;;;5039048;28;20055;-73
2022/05/13 12:06:49;;;;;;;7.85;1.55;;;;;;;;;;5062473;28;20489;-73
2022/05/13 12:09:36;;;;;;;9.40;1.77;;;;;;;;;;5042116;28;20037;-73
2022/05/13 12:12:21;;;;;;;8.55;1.60;;;;;;;;;;5054768;28;20056;-74
2022/05/13 12:14:53;;;;;;;7.43;1.50;;;;;;;;;;5062202;28;20045;-73
2022/05/13 12:17:19;;;;;;;8.02;1.48;;;;;;;;;;5062231;28;20041;-71
2022/05/13 12:20:05;;;;;;;6.85;1.40;;;;;;;;;;5062269;28;20449;-73
2022/05/13 12:22:31;;;;;;;5.88;1.55;;;;;;;;;;5058281;28;20123;-73
2022/05/13 12:25:02;;;;;;;6.68;1.45;;;;;;;;;;5057862;28;20076;-73
2022/05/13 12:27:30;;;;;;;7.57;1.40;;;;;;;;;;5057422;28;20506;-73
2022/05/13 12:29:59;;;;;;;8.48;1.23;;;;;;;;;;5057851;28;20056;-73
2022/05/13 12:32:35;;;;;;;8.32;1.08;;;;;;;;;;5054824;28;20041;-73
2022/05/13 12:37:46;;;;;;;8.20;1.50;;;;;;;;;;5062135;28;20053;-73
2022/05/13 12:40:22;;;;;;;8.85;1.60;;;;;;;;;;5042261;28;20051;-73
2022/05/13 12:42:48;;;;;;;6.40;1.40;;;;;;;;;;5054765;28;20454;-72
2022/05/13 12:45:22;;;;;;;8.75;1.38;;;;;;;;;;5060043;28;20052;-72
2022/05/13 12:48:06;;;;;;;8.30;1.70;;;;;;;;;;5063707;28;20049;-73
2022/05/13 12:50:41;;;;;;;7.70;1.65;;;;;;;;;;5067100;28;20083;-72
2022/05/13 12:53:25;;;;;;;9.23;1.73;;;;;;;;;;5046283;28;20045;-71
2022/05/13 12:55:52;;;;;;;9.77;1.70;;;;;;;;;;5061459;28;20049;-72
2022/05/13 12:58:18;;;;;;;6.80;1.45;;;;;;;;;;5059117;28;20041;-74
2022/05/13 13:00:49;;;;;;;7.40;1.67;;;;;;;;;;5036770;28;20506;-73
2022/05/13 13:03:15;;;;;;;9.25;1.85;;;;;;;;;;5041011;28;20049;-73
2022/05/13 13:05:43;;;;;;;9.30;1.58;;;;;;;;;;5057615;28;20052;-73
2022/05/13 13:08:17;;;;;;;7.32;1.50;;;;;;;;;;5059121;28;20045;-73
2022/05/13 13:10:56;;;;;;;9.45;1.35;;;;;;;;;;5058645;28;20101;-73
2022/05/13 13:13:45;;;;;;;7.63;1.30;;;;;;;;;;5059050;28;20534;-73
2022/05/13 13:16:21;;;;;;;9.20;1.75;;;;;;;;;;5040174;28;20049;-73
2022/05/13 13:19:04;;;;;;;6.30;1.30;;;;;;;;;;5058076;28;20047;-73
2022/05/13 13:21:30;;;;;;;5.80;1.10;;;;;;;;;;5051991;28;20077;-73
2022/05/13 13:23:56;;;;;;;7.45;1.45;;;;;;;;;;5054463;28;20041;-73
2022/05/13 13:26:22;;;;;;;6.85;1.50;;;;;;;;;;5060883;28;20052;-72
2022/05/13 13:28:51;;;;;;;11.88;1.73;;;;;;;;;;5042977;28;20041;-73
2022/05/13 13:31:23;;;;;;;6.90;1.40;;;;;;;;;;5063385;28;20048;-73
2022/05/13 13:33:58;;;;;;;9.05;1.60;;;;;;;;;;5066798;28;20045;-74
2022/05/13 13:36:26;;;;;;;7.00;1.52;;;;;;;;;;5045442;28;20045;-73
2022/05/13 13:38:54;;;;;;;6.75;1.27;;;;;;;;;;5042641;28;20486;-73
2022/05/13 13:41:28;;;;;;;7.07;1.50;;;;;;;;;;5055564;28;20053;-73
2022/05/13 13:43:58;;;;;;;6.90;1.42;;;;;;;;;;5060106;28;20514;-74
2022/05/13 13:46:45;;;;;;;9.95;1.70;;;;;;;;;;5064195;28;20048;-74
2022/05/13 13:49:17;;;;;;;5.45;1.38;;;;;;;;;;5069441;28;20119;-72
2022/05/13 13:51:51;;;;;;;9.70;1.48;;;;;;;;;;5037471;28;20108;-73
2022/05/13 13:54:19;;;;;;;6.97;1.63;;;;;;;;;;5068786;28;20037;-73
2022/05/13 13:57:06;;;;;;;6.38;1.50;;;;;;;;;;5064779;28;20041;-73
2022/05/13 13:59:37;;;;;;;6.85;1.52;;;;;;;;;;5069042;28;20047;-73
2022/05/13 14:02:05;;;;;;;7.72;1.50;;;;;;;;;;5073608;28;20050;-72
2022/05/13 14:04:31;;;;;;;9.73;2.03;;;;;;;;;;5052138;28;20052;-72
2022/05/13 14:06:59;;;;;;;9.02;1.70;;;;;;;;;;5072909;28;20041;-74
2022/05/13 14:09:34;;;;;;;6.43;1.30;;;;;;;;;;5072666;28;20045;-74
2022/05/13 14:12:01;;;;;;;6.60;1.33;;;;;;;;;;5054695;28;20125;-73
2022/05/13 14:14:28;;;;;;;5.50;1.27;;;;;;;;;;5070107;28;20044;-72
2022/05/13 14:16:58;;;;;;;6.30;1.30;;;;;;;;;;5056697;28;20403;-72
2022/05/13 14:19:25;;;;;;;8.88;1.70;;;;;;;;;;5027035;28;20099;-73
2022/05/13 14:22:03;;;;;;;7.20;1.40;;;;;;;;;;5043918;28;20128;-73
2022/05/13 14:24:34;;;;;;;11.23;1.70;;;;;;;;;;5050884;28;20053;-73
2022/05/13 14:27:05;;;;;;;7.97;1.40;;;;;;;;;;5064162;28;20051;-72
2022/05/13 14:29:34;;;;;;;7.50;1.42;;;;;;;;;;5063606;28;20040;-72
2022/05/13 14:32:06;;;;;;;8.82;1.50;;;;;;;;;;5053666;28;20423;-72
2022/05/13 14:34:32;;;;;;;6.80;1.52;;;;;;;;;;5059916;28;20060;-73
2022/05/13 14:36:59;;;;;;;9.07;1.50;;;;;;;;;;5044663;28;20102;-73
2022/05/13 14:42:16;;;;;;;6.40;1.35;;;;;;;;;;5057812;28;20131;-73
2022/05/13 14:44:43;;;;;;;10.50;1.65;;;;;;;;;;5062135;28;20041;-73
2022/05/13 14:47:16;;;;;;;7.10;1.95;;;;;;;;;;5061399;28;20072;-73
2022/05/13 14:49:50;;;;;;;6.65;1.58;;;;;;;;;;5061273;28;20049;-73
2022/05/13 14:52:25;;;;;;;7.03;1.48;;;;;;;;;;5052944;28;20081;-73
2022/05/13 14:54:51;;;;;;;8.75;1.52;;;;;;;;;;5054071;28;20045;-72
2022/05/13 14:57:18;;;;;;;6.82;1.70;;;;;;;;;;5041974;28;20451;-72
2022/05/13 14:59:58;;;;;;;9.68;1.80;;;;;;;;;;5043043;28;20079;-72
2022/05/13 15:02:51;;;;;;;9.98;1.63;;;;;;;;;;5061620;28;20084;-73
2022/05/13 15:05:19;;;;;;;12.18;1.48;;;;;;;;;;5057829;28;20053;-72
2022/05/13 15:07:45;;;;;;;11.55;1.80;;;;;;;;;;5047971;28;20046;-73
2022/05/13 15:10:16;;;;;;;11.55;2.08;;;;;;;;;;5055898;28;20037;-73
2022/05/13 15:12:42;;;;;;;7.63;1.77;;;;;;;;;;5060122;28;20052;-72
2022/05/13 15:15:10;;;;;;;8.55;1.92;;;;;;;;;;5044246;28;20049;-73
2022/05/13 15:17:37;;;;;;;7.78;1.65;;;;;;;;;;5043868;28;20056;-73
2022/05/13 15:20:04;;;;;;;7.53;1.90;;;;;;;;;;5062445;28;20079;-73
2022/05/13 15:22:30;;;;;;;8.48;1.80;;;;;;;;;;5061530;28;20060;-73
2022/05/13 15:24:56;;;;;;;6.68;1.58;;;;;;;;;;5060364;28;21085;-73
2022/05/13 15:27:25;;;;;;;6.35;1.30;;;;;;;;;;5061550;28;20061;-73